Time;durP1;ratioP1;P1;durP2;ratioP2;P2;SDS_P1;SDS_P2;PMS_P1;PMS_P2;Temp;Humidity;BMP_temperature;BMP_pressure;BME280_temperature;BME280_humidity;BME280_pressure;Samples;Min_cycle;Max_cycle;Signal;HPM_P1;HPM_P2
2022/07/27 00:02:11;;;;;;;1.10;0.97;;;19.60;1.00;;;;;;5055461;28;20949;-78
2022/07/27 00:04:37;;;;;;;5.20;0.80;;;19.60;1.00;;;;;;5052067;28;20429;-78
2022/07/27 00:07:52;;;;;;;1.03;0.90;;;19.60;1.00;;;;;;5065754;28;20438;-78
2022/07/27 00:10:36;;;;;;;0.97;0.70;;;19.60;1.00;;;;;;5035628;28;20168;-78
2022/07/27 00:13:03;;;;;;;1.83;1.00;;;19.50;1.00;;;;;;5053980;28;20422;-78
2022/07/27 00:15:41;;;;;;;0.87;0.83;;;19.50;1.00;;;;;;5055142;28;20441;-78
2022/07/27 00:18:17;;;;;;;4.40;1.00;;;19.50;1.00;;;;;;5035348;28;20394;-78
2022/07/27 00:20:53;;;;;;;2.40;0.90;;;19.50;1.00;;;;;;5049105;28;20401;-75
2022/07/27 00:23:23;;;;;;;0.83;0.83;;;19.60;1.00;;;;;;5045472;28;20444;-75
2022/07/27 00:25:49;;;;;;;2.40;1.00;;;19.60;1.00;;;;;;5055494;28;20405;-75
2022/07/27 00:28:15;;;;;;;0.90;0.90;;;19.70;1.00;;;;;;5054965;28;20858;-75
2022/07/27 00:30:40;;;;;;;0.80;0.80;;;19.70;1.00;;;;;;5055337;28;20282;-75
2022/07/27 00:33:11;;;;;;;1.53;1.10;;;19.70;1.00;;;;;;5053371;28;20179;-76
2022/07/27 00:36:28;;;;;;;1.43;1.00;;;19.70;1.00;;;;;;5037535;28;20438;-75
2022/07/27 00:39:11;;;;;;;1.83;1.10;;;19.70;1.00;;;;;;5034808;28;20447;-79
2022/07/27 00:41:47;;;;;;;1.27;1.10;;;19.70;1.00;;;;;;5034997;28;20405;-78
2022/07/27 00:44:13;;;;;;;1.57;0.90;;;19.70;1.00;;;;;;5043874;28;20930;-78
2022/07/27 00:46:54;;;;;;;2.23;1.07;;;19.70;1.00;;;;;;5054657;28;20398;-78
2022/07/27 00:49:29;;;;;;;1.27;0.93;;;19.70;1.00;;;;;;5054637;28;20540;-78
2022/07/27 00:51:55;;;;;;;1.93;1.03;;;19.70;1.00;;;;;;5053858;28;20412;-75
2022/07/27 00:54:21;;;;;;;2.00;0.90;;;19.70;1.00;;;;;;5052019;28;20429;-75
2022/07/27 00:56:48;;;;;;;1.20;0.97;;;19.70;1.00;;;;;;5054894;28;20166;-75
2022/07/27 00:59:19;;;;;;;0.97;0.97;;;19.60;1.00;;;;;;5035717;28;20442;-75
2022/07/27 01:01:44;;;;;;;1.60;1.10;;;19.60;1.00;;;;;;5053433;28;20442;-75
2022/07/27 01:04:10;;;;;;;2.40;0.90;;;19.70;1.00;;;;;;5047479;28;20411;-76
2022/07/27 01:06:36;;;;;;;1.30;0.80;;;19.70;1.00;;;;;;5057105;28;20210;-76
2022/07/27 01:11:53;;;;;;;1.23;0.90;;;19.70;1.00;;;;;;5043015;28;20413;-75
2022/07/27 01:14:24;;;;;;;0.87;0.87;;;19.70;1.00;;;;;;5041941;28;20474;-75
2022/07/27 01:16:53;;;;;;;1.57;0.90;;;19.60;1.00;;;;;;5054169;28;20391;-75
2022/07/27 01:19:23;;;;;;;1.00;0.77;;;19.60;1.00;;;;;;5039147;28;20908;-76
2022/07/27 01:21:59;;;;;;;3.63;1.50;;;19.50;1.00;;;;;;5054005;28;20908;-76
2022/07/27 01:24:29;;;;;;;2.43;0.83;;;19.50;1.00;;;;;;5053988;28;20410;-75
2022/07/27 01:27:03;;;;;;;3.47;0.90;;;19.50;1.00;;;;;;5054163;28;20729;-75
2022/07/27 01:29:37;;;;;;;1.47;1.00;;;19.50;1.00;;;;;;5037364;28;20488;-75
2022/07/27 01:32:03;;;;;;;1.40;0.70;;;19.50;1.00;;;;;;5049078;28;20429;-75
2022/07/27 01:34:32;;;;;;;1.50;0.70;;;19.50;1.00;;;;;;5045915;28;20422;-75
2022/07/27 01:37:03;;;;;;;2.13;1.00;;;19.50;1.00;;;;;;5035264;28;20426;-75
2022/07/27 01:39:30;;;;;;;1.47;0.77;;;19.50;1.00;;;;;;5039404;28;20419;-75
2022/07/27 01:41:56;;;;;;;2.30;0.90;;;19.50;1.00;;;;;;5052931;28;20432;-75
2022/07/27 01:44:22;;;;;;;2.00;0.90;;;19.50;1.00;;;;;;5049435;28;20420;-76
2022/07/27 01:47:05;;;;;;;1.90;1.00;;;19.60;1.00;;;;;;5049850;28;20430;-75
2022/07/27 01:49:31;;;;;;;1.00;0.87;;;19.60;1.00;;;;;;5053847;28;20449;-75
2022/07/27 01:51:59;;;;;;;0.93;0.83;;;19.60;1.00;;;;;;5054220;28;20425;-78
2022/07/27 01:54:29;;;;;;;1.97;0.90;;;19.60;1.00;;;;;;5053427;28;20179;-78
2022/07/27 01:57:05;;;;;;;0.80;0.80;;;19.60;1.00;;;;;;5052985;28;20424;-78
2022/07/27 01:59:30;;;;;;;1.00;0.80;;;19.50;1.00;;;;;;5053482;28;20463;-78
2022/07/27 02:02:05;;;;;;;0.90;0.80;;;19.60;1.00;;;;;;5047970;28;20413;-78
2022/07/27 02:04:52;;;;;;;1.87;1.00;;;19.50;1.00;;;;;;5053283;28;20634;-78
2022/07/27 02:07:18;;;;;;;2.23;0.90;;;19.50;1.00;;;;;;5050765;28;20460;-76
2022/07/27 02:09:47;;;;;;;4.50;1.00;;;19.50;1.00;;;;;;5036965;28;20525;-75
2022/07/27 02:14:57;;;;;;;1.43;1.00;;;19.50;1.00;;;;;;5041864;28;20500;-76
2022/07/27 02:17:23;;;;;;;3.17;1.23;;;19.50;1.00;;;;;;5047086;28;20527;-75
2022/07/27 02:19:48;;;;;;;1.07;0.97;;;19.40;1.00;;;;;;5035430;28;20199;-75
2022/07/27 02:22:47;;;;;;;1.80;1.10;;;19.40;1.00;;;;;;5052842;28;20579;-76
2022/07/27 02:25:14;;;;;;;2.20;1.07;;;19.40;1.00;;;;;;5048094;28;20174;-76
2022/07/27 02:27:41;;;;;;;2.87;0.90;;;19.40;1.00;;;;;;5053385;28;20757;-75
2022/07/27 02:30:08;;;;;;;1.40;1.00;;;19.30;1.00;;;;;;5053231;28;21108;-75
2022/07/27 02:32:35;;;;;;;1.20;1.10;;;19.30;1.00;;;;;;5047236;28;20433;-76
2022/07/27 02:35:01;;;;;;;1.43;1.10;;;19.20;1.00;;;;;;5050610;28;20440;-75
2022/07/27 02:37:29;;;;;;;2.40;1.17;;;19.20;1.00;;;;;;5051828;28;20773;-78
2022/07/27 02:40:05;;;;;;;1.37;1.27;;;19.10;1.00;;;;;;5037184;28;20414;-78
2022/07/27 02:42:41;;;;;;;1.03;1.03;;;19.10;1.00;;;;;;5037081;28;20480;-78
2022/07/27 02:45:08;;;;;;;2.33;1.07;;;19.10;1.00;;;;;;5052279;28;20446;-78
2022/07/27 02:47:41;;;;;;;1.20;1.10;;;19.10;1.00;;;;;;5054520;28;20817;-78
2022/07/27 02:50:08;;;;;;;1.87;1.00;;;19.00;1.00;;;;;;5036929;28;21007;-78
2022/07/27 02:52:35;;;;;;;2.60;1.20;;;19.00;1.00;;;;;;5037403;28;20405;-78
2022/07/27 02:55:06;;;;;;;2.53;1.00;;;19.00;1.00;;;;;;5053452;28;20932;-78
2022/07/27 02:57:39;;;;;;;0.90;0.90;;;18.90;1.00;;;;;;5051493;28;20428;-78
2022/07/27 03:00:17;;;;;;;1.53;1.43;;;18.90;1.00;;;;;;5038256;28;20421;-78
2022/07/27 03:03:11;;;;;;;3.13;1.80;;;19.00;1.00;;;;;;5040620;28;20425;-78
2022/07/27 03:05:38;;;;;;;1.67;1.10;;;18.90;1.00;;;;;;5049722;28;20952;-79
2022/07/27 03:08:04;;;;;;;2.47;1.07;;;18.90;1.00;;;;;;5051744;28;20421;-75
2022/07/27 03:10:35;;;;;;;1.53;1.20;;;18.90;1.00;;;;;;5036381;28;20404;-76
2022/07/27 03:13:01;;;;;;;1.23;1.13;;;18.90;1.00;;;;;;5055206;28;20432;-75
2022/07/27 03:15:32;;;;;;;2.40;1.00;;;18.90;1.00;;;;;;5056322;28;20496;-76
2022/07/27 03:18:11;;;;;;;2.20;1.17;;;18.90;1.00;;;;;;5055369;28;20559;-76
2022/07/27 03:20:41;;;;;;;4.50;1.07;;;18.90;1.00;;;;;;5050485;28;20395;-75
2022/07/27 03:23:11;;;;;;;1.37;1.27;;;18.90;1.00;;;;;;5055103;28;20421;-78
2022/07/27 03:25:41;;;;;;;8.63;1.00;;;18.90;1.00;;;;;;5053669;28;20424;-78
2022/07/27 03:28:11;;;;;;;3.30;1.10;;;18.90;1.00;;;;;;5037746;28;20467;-78
2022/07/27 03:31:22;;;;;;;8.03;1.57;;;18.90;1.00;;;;;;5056243;28;20864;-78
2022/07/27 03:33:53;;;;;;;1.57;1.20;;;18.90;1.00;;;;;;5046522;28;20781;-78
2022/07/27 03:36:47;;;;;;;9.63;1.43;;;18.90;1.00;;;;;;5054744;28;20789;-78
2022/07/27 03:39:17;;;;;;;3.53;1.40;;;18.90;1.00;;;;;;5044677;28;20429;-75
2022/07/27 03:41:43;;;;;;;1.87;1.30;;;18.80;1.00;;;;;;5055257;28;20471;-76
2022/07/27 03:44:17;;;;;;;2.17;1.70;;;18.80;1.00;;;;;;5043871;28;20480;-76
2022/07/27 03:46:43;;;;;;;8.80;1.37;;;18.80;1.00;;;;;;5051777;28;20524;-75
2022/07/27 03:49:17;;;;;;;1.80;1.10;;;18.80;1.00;;;;;;5055757;28;20461;-76
2022/07/27 03:51:47;;;;;;;3.60;1.50;;;18.70;1.00;;;;;;5051544;28;20181;-78
2022/07/27 03:54:17;;;;;;;3.33;1.30;;;18.70;1.00;;;;;;5041601;28;20928;-77
2022/07/27 03:56:44;;;;;;;3.00;1.23;;;18.70;1.00;;;;;;5046788;28;20409;-77
2022/07/27 03:59:29;;;;;;;6.63;1.53;;;18.60;1.00;;;;;;5037469;28;20814;-77
2022/07/27 04:01:59;;;;;;;4.53;1.63;;;18.60;1.00;;;;;;5043170;28;20412;-76
2022/07/27 04:04:29;;;;;;;4.93;1.40;;;18.70;1.00;;;;;;5054734;28;20429;-76
2022/07/27 04:07:05;;;;;;;3.43;1.20;;;18.70;1.00;;;;;;5045025;28;20423;-76
2022/07/27 04:09:41;;;;;;;4.83;1.43;;;18.70;1.00;;;;;;5052941;28;20453;-75
2022/07/27 04:12:11;;;;;;;5.43;1.50;;;18.70;1.00;;;;;;5055595;28;20978;-75
2022/07/27 04:14:41;;;;;;;3.47;1.50;;;18.70;1.00;;;;;;5055482;28;20387;-75
2022/07/27 04:17:11;;;;;;;4.73;1.20;;;18.80;1.00;;;;;;5034249;28;20757;-75
2022/07/27 04:19:53;;;;;;;3.77;1.20;;;18.70;1.00;;;;;;5035979;28;20402;-75
2022/07/27 04:22:19;;;;;;;4.57;1.33;;;18.80;1.00;;;;;;5051035;28;20401;-75
2022/07/27 04:24:47;;;;;;;6.63;1.30;;;18.80;1.00;;;;;;5047354;28;20505;-76
2022/07/27 04:27:17;;;;;;;3.00;1.20;;;18.80;1.00;;;;;;5050478;28;20210;-78
2022/07/27 04:29:47;;;;;;;2.40;1.30;;;18.80;1.00;;;;;;5053610;28;20990;-77
2022/07/27 04:32:17;;;;;;;8.07;1.23;;;18.80;1.00;;;;;;5051876;28;20423;-77
2022/07/27 04:35:05;;;;;;;3.13;1.20;;;18.80;1.00;;;;;;5045341;28;20425;-77
2022/07/27 04:37:32;;;;;;;3.77;1.37;;;18.90;1.00;;;;;;5037021;28;20437;-76
2022/07/27 04:40:07;;;;;;;5.63;1.23;;;18.90;1.00;;;;;;5047376;28;20497;-77
2022/07/27 04:42:52;;;;;;;3.47;1.50;;;18.80;1.00;;;;;;5046542;28;20766;-77
2022/07/27 04:45:18;;;;;;;4.33;1.10;;;18.80;1.00;;;;;;5033946;28;20495;-77
2022/07/27 04:47:53;;;;;;;10.70;1.60;;;18.90;1.00;;;;;;5045465;28;20387;-77
2022/07/27 04:50:19;;;;;;;3.93;1.37;;;18.90;1.00;;;;;;5036309;28;20946;-77
2022/07/27 04:52:45;;;;;;;5.80;1.13;;;18.90;1.00;;;;;;5042424;28;20503;-78
2022/07/27 04:55:23;;;;;;;2.00;1.10;;;18.90;1.00;;;;;;5035934;28;20179;-75
2022/07/27 04:57:59;;;;;;;8.63;1.67;;;18.90;1.00;;;;;;5048138;28;20167;-75
2022/07/27 05:00:35;;;;;;;4.40;1.60;;;18.90;1.00;;;;;;5065749;28;20459;-75
2022/07/27 05:03:01;;;;;;;13.23;1.90;;;19.00;1.00;;;;;;5050716;28;20425;-75
2022/07/27 05:05:27;;;;;;;4.60;1.00;;;19.00;1.00;;;;;;5047496;28;20512;-75
2022/07/27 05:07:53;;;;;;;1.17;1.07;;;19.10;1.00;;;;;;5051336;28;20639;-76
2022/07/27 05:10:24;;;;;;;8.50;1.37;;;19.10;1.00;;;;;;5032665;28;20293;-75
2022/07/27 05:12:50;;;;;;;1.70;1.10;;;19.20;1.00;;;;;;5047379;28;20417;-76
2022/07/27 05:15:23;;;;;;;8.80;1.40;;;19.20;1.00;;;;;;5043181;28;20489;-77
2022/07/27 05:17:59;;;;;;;4.13;1.20;;;19.20;1.00;;;;;;5048286;28;20167;-76
2022/07/27 05:20:35;;;;;;;2.43;1.20;;;19.30;1.00;;;;;;5047372;28;20413;-77
2022/07/27 05:23:05;;;;;;;4.20;1.40;;;19.40;1.00;;;;;;5046144;28;20418;-76
2022/07/27 05:25:35;;;;;;;5.30;1.40;;;19.40;1.00;;;;;;5034926;28;20377;-76
2022/07/27 05:28:23;;;;;;;4.77;1.50;;;19.40;1.00;;;;;;5034052;28;20996;-76
2022/07/27 05:30:53;;;;;;;4.83;1.40;;;19.50;1.00;;;;;;5049400;28;20925;-76
2022/07/27 05:33:29;;;;;;;6.80;2.17;;;19.60;1.00;;;;;;5052278;28;20424;-76
2022/07/27 05:35:55;;;;;;;4.07;1.40;;;19.60;1.00;;;;;;5048870;28;20431;-76
2022/07/27 05:38:23;;;;;;;2.53;1.03;;;19.50;1.00;;;;;;5040366;28;20388;-76
2022/07/27 05:40:59;;;;;;;3.23;1.40;;;19.60;1.00;;;;;;5047536;28;20418;-76
2022/07/27 05:43:25;;;;;;;7.90;1.43;;;19.60;1.00;;;;;;5055950;28;20432;-76
2022/07/27 05:45:50;;;;;;;9.20;1.47;;;19.70;1.00;;;;;;5033906;28;20425;-76
2022/07/27 05:48:17;;;;;;;10.63;1.43;;;19.70;1.00;;;;;;5047383;28;20178;-75
2022/07/27 05:50:53;;;;;;;5.70;1.20;;;19.80;1.00;;;;;;5049401;28;20180;-76
2022/07/27 05:53:24;;;;;;;6.97;1.67;;;19.80;1.00;;;;;;5066968;28;20977;-76
2022/07/27 05:55:53;;;;;;;3.13;1.30;;;19.80;1.00;;;;;;5046873;28;20915;-76
2022/07/27 05:58:47;;;;;;;5.07;1.53;;;19.90;1.00;;;;;;5036061;28;20418;-76
2022/07/27 06:01:47;;;;;;;4.20;1.40;;;19.90;1.00;;;;;;5046997;28;20446;-76
2022/07/27 06:04:17;;;;;;;4.83;1.40;;;20.00;1.00;;;;;;5045791;28;20472;-76
2022/07/27 06:09:47;;;;;;;14.00;1.70;;;20.30;1.00;;;;;;5047915;28;20536;-76
2022/07/27 06:12:23;;;;;;;4.87;1.20;;;20.40;1.00;;;;;;5044759;28;20485;-76
2022/07/27 06:15:06;;;;;;;2.73;1.40;;;20.60;1.00;;;;;;5051947;28;20906;-76
2022/07/27 06:17:35;;;;;;;7.20;1.60;;;20.70;1.00;;;;;;5037553;28;20937;-76
2022/07/27 06:20:18;;;;;;;5.90;1.50;;;20.80;1.00;;;;;;5053655;28;20738;-76
2022/07/27 06:22:49;;;;;;;2.80;1.00;;;20.90;1.00;;;;;;5047347;28;21039;-75
2022/07/27 06:25:18;;;;;;;3.63;1.43;;;21.10;1.00;;;;;;5053034;28;20424;-76
2022/07/27 06:27:47;;;;;;;7.13;1.80;;;21.10;1.00;;;;;;5045845;28;20937;-77
2022/07/27 06:30:19;;;;;;;2.37;1.30;;;21.30;1.00;;;;;;5045599;28;20979;-76
2022/07/27 06:32:53;;;;;;;5.43;1.30;;;21.40;1.00;;;;;;5041554;28;20885;-77
2022/07/27 06:39:05;;;;;;;8.03;1.50;;;21.70;1.00;;;;;;5040221;28;20809;-86
2022/07/27 06:44:59;;;;;;;9.20;1.37;;;22.10;1.00;;;;;;5043088;28;20476;-80
2022/07/27 06:47:48;;;;;;;5.70;2.13;;;22.20;1.00;;;;;;5033118;28;20942;-80
2022/07/27 06:50:29;;;;;;;10.00;1.53;;;22.30;1.00;;;;;;5039149;28;20474;-80
2022/07/27 06:52:55;;;;;;;7.53;1.40;;;22.30;1.00;;;;;;5046076;28;20418;-80
2022/07/27 06:55:29;;;;;;;5.43;1.37;;;22.30;1.00;;;;;;5037764;28;20456;-79
2022/07/27 06:57:59;;;;;;;3.97;1.50;;;22.40;1.00;;;;;;5032916;28;20665;-79
2022/07/27 07:00:35;;;;;;;5.27;1.20;;;22.50;1.00;;;;;;5039601;28;21014;-79
2022/07/27 07:03:05;;;;;;;9.37;1.60;;;22.80;1.00;;;;;;5051455;28;20432;-79
2022/07/27 07:05:44;;;;;;;9.17;1.60;;;22.90;1.00;;;;;;5049238;28;20508;-80
2022/07/27 07:08:13;;;;;;;3.30;1.57;;;23.00;1.00;;;;;;5038128;28;20954;-80
2022/07/27 07:10:54;;;;;;;5.63;1.40;;;23.00;1.00;;;;;;5052930;28;20422;-80
2022/07/27 07:13:23;;;;;;;3.53;1.50;;;23.10;1.00;;;;;;5050228;28;20421;-80
2022/07/27 07:15:49;;;;;;;4.13;1.30;;;23.20;1.00;;;;;;5052583;28;20411;-80
2022/07/27 07:18:17;;;;;;;7.20;1.30;;;23.10;1.00;;;;;;5052275;28;20407;-81
2022/07/27 07:21:00;;;;;;;2.47;1.20;;;23.10;1.00;;;;;;5056220;28;20155;-81
2022/07/27 07:23:41;;;;;;;5.80;1.20;;;23.00;1.00;;;;;;5042644;28;20408;-80
2022/07/27 07:26:11;;;;;;;6.90;1.10;;;22.90;1.00;;;;;;5071494;28;20469;-80
2022/07/27 07:28:41;;;;;;;5.93;1.30;;;22.80;1.00;;;;;;5055768;28;20449;-80
2022/07/27 07:31:07;;;;;;;8.33;1.53;;;22.80;1.00;;;;;;5055928;28;20437;-80
2022/07/27 07:33:35;;;;;;;14.47;1.60;;;22.70;1.00;;;;;;5054534;28;20419;-80
2022/07/27 07:36:05;;;;;;;7.03;1.67;;;22.50;1.00;;;;;;5056359;28;20183;-80
2022/07/27 07:38:35;;;;;;;7.43;1.40;;;22.30;1.00;;;;;;5052665;28;20507;-80
2022/07/27 07:41:05;;;;;;;6.60;1.43;;;22.20;1.00;;;;;;5041366;28;20530;-80
2022/07/27 07:43:59;;;;;;;6.17;1.53;;;22.20;1.00;;;;;;5048040;28;20433;-80
2022/07/27 07:46:41;;;;;;;6.47;1.70;;;22.20;1.00;;;;;;5045390;28;20474;-80
2022/07/27 07:49:11;;;;;;;3.67;1.40;;;22.30;1.00;;;;;;5052083;28;20435;-80
2022/07/27 07:51:47;;;;;;;2.77;1.23;;;22.30;1.00;;;;;;5051270;28;20892;-80
2022/07/27 07:54:29;;;;;;;3.60;1.33;;;22.40;1.00;;;;;;5043450;28;20418;-80
2022/07/27 07:57:05;;;;;;;1.63;1.47;;;22.40;1.00;;;;;;5050653;28;20508;-79
2022/07/27 07:59:35;;;;;;;3.63;1.70;;;22.30;1.00;;;;;;5055582;28;20859;-79
2022/07/27 08:02:02;;;;;;;6.20;1.37;;;22.40;1.00;;;;;;5054854;28;20425;-79
2022/07/27 08:04:28;;;;;;;5.10;1.70;;;22.40;1.00;;;;;;5041610;28;20486;-79
2022/07/27 08:06:53;;;;;;;5.53;1.23;;;22.40;1.00;;;;;;5054489;28;20935;-79
2022/07/27 08:09:20;;;;;;;3.03;1.20;;;22.40;1.00;;;;;;5050654;28;20543;-79
2022/07/27 08:11:46;;;;;;;7.80;1.20;;;22.50;1.00;;;;;;5053933;28;20174;-80
2022/07/27 08:14:11;;;;;;;7.37;1.37;;;22.60;1.00;;;;;;5051733;28;20504;-80
2022/07/27 08:16:37;;;;;;;11.00;1.40;;;22.50;1.00;;;;;;5033774;28;20649;-81
2022/07/27 08:19:03;;;;;;;6.60;1.63;;;22.60;1.00;;;;;;5052215;28;20352;-80
2022/07/27 08:21:29;;;;;;;5.90;1.50;;;22.60;1.00;;;;;;5042644;28;20182;-80
2022/07/27 08:23:59;;;;;;;6.70;1.50;;;22.70;1.00;;;;;;5055209;28;20433;-79
2022/07/27 08:26:24;;;;;;;3.47;1.43;;;22.70;1.00;;;;;;5049627;28;20261;-79
2022/07/27 08:28:50;;;;;;;2.70;1.10;;;22.60;1.00;;;;;;5043310;28;20452;-79
2022/07/27 08:31:16;;;;;;;4.53;1.30;;;22.60;1.00;;;;;;5061128;28;20171;-79
2022/07/27 08:33:41;;;;;;;5.60;1.70;;;22.60;1.00;;;;;;5055903;28;20190;-80
2022/07/27 08:36:07;;;;;;;4.50;1.23;;;22.80;1.00;;;;;;5045245;28;20177;-79
2022/07/27 08:38:32;;;;;;;6.40;1.70;;;22.90;1.00;;;;;;5048662;28;20187;-82
2022/07/27 08:41:02;;;;;;;7.00;1.70;;;22.90;1.00;;;;;;5043880;28;20175;-80
2022/07/27 08:43:29;;;;;;;8.33;1.20;;;23.00;1.00;;;;;;5049350;28;20240;-80
2022/07/27 08:45:57;;;;;;;3.63;1.20;;;23.10;1.00;;;;;;5033432;28;20439;-80
2022/07/27 08:48:27;;;;;;;8.73;1.80;;;23.20;1.00;;;;;;5044476;28;20792;-80
2022/07/27 08:50:54;;;;;;;11.30;1.80;;;23.20;1.00;;;;;;5045624;28;20419;-79
2022/07/27 08:53:21;;;;;;;6.03;1.50;;;23.30;1.00;;;;;;5051578;28;20431;-80
2022/07/27 08:55:47;;;;;;;6.03;1.47;;;23.30;1.00;;;;;;5048837;28;20441;-79
2022/07/27 08:58:14;;;;;;;3.87;1.40;;;23.40;1.00;;;;;;5049774;28;20420;-79
2022/07/27 09:00:45;;;;;;;6.90;1.10;;;23.40;1.00;;;;;;5053433;28;20170;-80
2022/07/27 09:03:16;;;;;;;4.30;1.30;;;23.60;1.00;;;;;;5053142;28;20922;-79
2022/07/27 09:05:49;;;;;;;3.60;1.20;;;23.60;1.00;;;;;;5050802;28;20400;-81
2022/07/27 09:08:20;;;;;;;9.23;1.60;;;23.50;1.00;;;;;;5052867;28;20385;-79
2022/07/27 09:10:46;;;;;;;12.37;1.60;;;23.60;1.00;;;;;;5051023;28;20926;-80
2022/07/27 09:13:26;;;;;;;5.23;1.10;;;23.70;1.00;;;;;;5052866;28;20431;-79
2022/07/27 09:15:55;;;;;;;7.60;1.00;;;23.80;1.00;;;;;;5049493;28;20794;-79
2022/07/27 09:18:24;;;;;;;6.47;1.47;;;23.90;1.00;;;;;;5043696;28;20433;-79
2022/07/27 09:21:15;;;;;;;4.00;1.00;;;24.00;1.00;;;;;;5047568;28;20524;-79
2022/07/27 09:23:52;;;;;;;3.90;1.40;;;24.10;1.00;;;;;;5043317;28;20423;-79
2022/07/27 09:26:26;;;;;;;6.27;1.10;;;24.10;1.00;;;;;;5050021;28;20423;-79
2022/07/27 09:28:56;;;;;;;4.17;1.20;;;24.20;1.00;;;;;;5056745;28;20550;-79
2022/07/27 09:31:23;;;;;;;4.67;1.43;;;24.30;1.00;;;;;;5052289;28;20419;-79
2022/07/27 09:33:51;;;;;;;2.97;1.30;;;24.40;1.00;;;;;;5046611;28;21120;-79
2022/07/27 09:36:19;;;;;;;3.73;1.30;;;24.50;1.00;;;;;;5053291;28;20424;-79
2022/07/27 09:39:05;;;;;;;3.93;1.40;;;24.60;1.00;;;;;;5048892;28;20788;-80
2022/07/27 09:41:42;;;;;;;3.67;1.20;;;24.80;1.00;;;;;;5046806;28;20451;-81
2022/07/27 09:44:09;;;;;;;4.23;1.30;;;24.80;1.00;;;;;;5040616;28;20423;-79
2022/07/27 09:46:37;;;;;;;3.03;1.30;;;24.80;1.00;;;;;;5040024;28;20849;-77
2022/07/27 09:49:38;;;;;;;5.67;1.40;;;24.60;1.00;;;;;;5042548;28;20465;-77
2022/07/27 09:52:22;;;;;;;2.10;1.13;;;24.80;1.00;;;;;;4972735;28;20479;-78
2022/07/27 09:55:20;;;;;;;3.23;1.13;;;24.90;1.00;;;;;;4971536;28;20499;-78
2022/07/27 09:57:55;;;;;;;7.27;1.30;;;25.20;1.00;;;;;;4896623;29;20428;-78
2022/07/27 10:00:35;;;;;;;5.20;1.30;;;25.20;1.00;;;;;;4884122;29;20442;-78
2022/07/27 10:03:35;;;;;;;6.47;1.10;;;25.60;1.00;;;;;;4896529;29;21135;-78
2022/07/27 10:06:17;;;;;;;10.83;0.93;;;25.70;1.00;;;;;;4895959;29;21168;-78
2022/07/27 10:08:49;;;;;;;5.17;0.80;;;25.80;1.00;;;;;;4896421;29;20486;-78
2022/07/27 10:11:19;;;;;;;1.90;1.00;;;26.00;1.00;;;;;;4896134;29;20436;-78
2022/07/27 10:13:55;;;;;;;4.90;1.40;;;26.10;1.00;;;;;;4896438;29;20426;-79
2022/07/27 10:16:28;;;;;;;1.93;1.07;;;25.80;1.00;;;;;;4868011;29;20484;-79
2022/07/27 10:19:14;;;;;;;4.40;1.13;;;25.60;1.00;;;;;;4889975;29;20434;-82
2022/07/27 10:22:11;;;;;;;9.90;1.60;;;25.70;1.00;;;;;;4883375;29;20509;-79
2022/07/27 10:24:41;;;;;;;2.10;1.10;;;25.80;1.00;;;;;;4896451;29;20504;-77
2022/07/27 10:27:29;;;;;;;9.73;1.47;;;25.70;1.00;;;;;;4989142;28;20447;-77
2022/07/27 10:30:26;;;;;;;5.87;1.40;;;26.10;1.00;;;;;;4976902;28;20866;-79
2022/07/27 10:32:53;;;;;;;1.80;1.03;;;26.60;1.00;;;;;;4984022;28;20538;-79
2022/07/27 10:39:06;;;;;;;3.80;0.93;;;27.00;1.00;;;;;;5041941;28;20469;-81
2022/07/27 10:41:42;;;;;;;8.07;1.37;;;27.30;1.00;;;;;;5041307;28;20422;-79
2022/07/27 10:44:26;;;;;;;2.67;1.10;;;27.10;1.00;;;;;;5046577;28;20424;-81
2022/07/27 10:47:26;;;;;;;2.93;1.20;;;27.00;1.00;;;;;;5043454;28;20427;-81
2022/07/27 10:50:29;;;;;;;3.40;1.17;;;26.60;1.00;;;;;;5052984;28;20532;-80
2022/07/27 10:53:12;;;;;;;3.13;1.03;;;26.10;1.00;;;;;;5047224;28;20400;-81
2022/07/27 10:55:49;;;;;;;3.73;1.37;;;26.00;1.00;;;;;;5044113;28;20484;-80
2022/07/27 10:58:20;;;;;;;3.83;1.40;;;26.10;1.00;;;;;;5056970;28;20518;-80
2022/07/27 11:00:48;;;;;;;3.33;1.00;;;26.20;1.00;;;;;;5048399;28;20419;-80
2022/07/27 11:03:54;;;;;;;1.97;1.10;;;26.20;1.00;;;;;;5050212;28;20406;-80
2022/07/27 11:06:25;;;;;;;3.30;1.20;;;26.10;1.00;;;;;;5050390;28;20410;-80
2022/07/27 11:09:01;;;;;;;7.83;1.50;;;26.10;1.00;;;;;;5053786;28;20482;-80
2022/07/27 11:11:33;;;;;;;5.10;1.07;;;26.20;1.00;;;;;;5049805;28;20440;-80
2022/07/27 11:14:11;;;;;;;2.20;1.23;;;26.50;1.00;;;;;;5047926;28;20827;-80
2022/07/27 11:16:41;;;;;;;2.90;1.47;;;26.60;1.00;;;;;;5056352;28;20399;-81
2022/07/27 11:19:07;;;;;;;4.73;1.33;;;26.70;1.00;;;;;;5054818;28;20418;-80
2022/07/27 11:21:48;;;;;;;1.77;1.20;;;26.70;1.00;;;;;;5047465;28;20411;-80
2022/07/27 11:24:18;;;;;;;2.30;1.10;;;26.80;1.00;;;;;;5053451;28;20415;-80
2022/07/27 11:27:05;;;;;;;10.50;1.80;;;26.80;1.00;;;;;;5056284;28;20469;-80
2022/07/27 11:29:35;;;;;;;9.23;1.00;;;26.80;1.00;;;;;;5054690;28;20459;-80
2022/07/27 11:35:29;;;;;;;2.40;1.20;;;26.50;1.00;;;;;;5047191;28;20492;-80
2022/07/27 11:38:47;;;;;;;3.63;1.20;;;26.70;1.00;;;;;;5049074;28;20439;-80
2022/07/27 11:41:47;;;;;;;1.97;0.80;;;26.70;1.00;;;;;;5056079;28;20750;-80
2022/07/27 11:44:17;;;;;;;1.40;0.80;;;26.80;1.00;;;;;;5047866;28;20414;-79
2022/07/27 11:47:18;;;;;;;3.10;1.10;;;26.90;1.00;;;;;;5049371;28;20444;-79
2022/07/27 11:49:43;;;;;;;3.03;1.07;;;27.10;1.00;;;;;;5050578;28;20955;-79
2022/07/27 11:52:17;;;;;;;3.07;1.10;;;27.50;1.00;;;;;;5048579;28;20495;-79
2022/07/27 11:54:50;;;;;;;5.90;1.00;;;27.50;1.00;;;;;;5034415;28;20168;-79
2022/07/27 11:57:31;;;;;;;1.57;1.00;;;27.40;1.00;;;;;;5050709;28;20411;-79
2022/07/27 12:00:47;;;;;;;1.57;0.90;;;27.60;1.00;;;;;;5044249;28;20529;-80
2022/07/27 12:03:28;;;;;;;3.53;1.00;;;27.50;1.00;;;;;;5035814;28;20407;-80
2022/07/27 12:05:58;;;;;;;9.93;1.30;;;27.30;1.00;;;;;;5041068;28;20822;-78
2022/07/27 12:08:29;;;;;;;1.10;1.00;;;27.30;1.00;;;;;;5055145;28;20536;-79
2022/07/27 12:10:59;;;;;;;2.53;0.90;;;27.50;1.00;;;;;;5042922;28;20497;-78
2022/07/27 12:13:35;;;;;;;5.53;1.10;;;27.60;1.00;;;;;;5054344;28;20390;-78
2022/07/27 12:16:05;;;;;;;7.53;1.20;;;27.80;1.00;;;;;;5043209;28;20790;-78
2022/07/27 12:18:42;;;;;;;3.57;0.80;;;28.10;1.00;;;;;;5054226;28;20771;-83
2022/07/27 12:21:18;;;;;;;3.70;0.90;;;28.70;1.00;;;;;;5053693;28;20417;-79
2022/07/27 12:24:00;;;;;;;2.00;0.80;;;29.00;1.00;;;;;;5054907;28;20416;-81
2022/07/27 12:26:25;;;;;;;11.40;1.40;;;29.40;1.00;;;;;;5053157;28;20420;-80
2022/07/27 12:29:09;;;;;;;3.43;0.87;;;29.40;1.00;;;;;;5043815;28;20801;-78
2022/07/27 12:31:48;;;;;;;2.40;0.83;;;29.40;1.00;;;;;;5047918;28;20179;-81
2022/07/27 12:34:17;;;;;;;4.40;0.77;;;29.90;1.00;;;;;;5050813;28;20823;-82
2022/07/27 12:36:47;;;;;;;10.10;1.63;;;30.10;1.00;;;;;;5037266;28;20436;-81
2022/07/27 12:39:30;;;;;;;3.80;0.97;;;30.10;1.00;;;;;;5055015;28;20396;-81
2022/07/27 12:42:05;;;;;;;4.43;1.00;;;30.00;1.00;;;;;;5049110;28;20478;-77
2022/07/27 12:44:34;;;;;;;8.33;0.90;;;30.00;1.00;;;;;;5036499;28;20520;-76
2022/07/27 12:47:39;;;;;;;1.00;0.90;;;30.00;1.00;;;;;;5035040;28;20402;-76
2022/07/27 12:50:15;;;;;;;4.90;1.10;;;30.00;1.00;;;;;;5048261;28;20967;-76
2022/07/27 12:52:42;;;;;;;2.10;0.80;;;29.80;1.00;;;;;;5034941;28;20451;-75
2022/07/27 12:55:09;;;;;;;3.00;0.80;;;30.00;1.00;;;;;;5041807;28;20441;-75
2022/07/27 12:57:35;;;;;;;4.00;0.97;;;30.20;1.00;;;;;;5052527;28;20903;-75
2022/07/27 13:00:06;;;;;;;2.37;0.90;;;30.30;1.00;;;;;;5034152;28;20428;-76
2022/07/27 13:02:32;;;;;;;2.60;0.87;;;30.10;1.00;;;;;;5033628;28;20190;-76
2022/07/27 13:04:57;;;;;;;1.60;0.80;;;30.10;1.00;;;;;;5033656;28;20777;-76
2022/07/27 13:07:24;;;;;;;4.53;1.00;;;30.20;1.00;;;;;;5044489;28;20183;-75
2022/07/27 13:09:50;;;;;;;4.23;0.87;;;30.20;1.00;;;;;;5041572;28;20285;-75
2022/07/27 13:12:16;;;;;;;1.20;0.90;;;29.90;1.00;;;;;;5053146;28;20980;-75
2022/07/27 13:14:41;;;;;;;5.57;1.03;;;29.80;1.00;;;;;;5053589;28;20210;-76
2022/07/27 13:17:07;;;;;;;3.93;0.90;;;29.40;1.00;;;;;;5051053;28;20641;-76
2022/07/27 13:19:32;;;;;;;3.23;1.30;;;29.50;1.00;;;;;;5053251;28;20515;-76
2022/07/27 13:21:58;;;;;;;4.60;1.00;;;29.70;1.00;;;;;;5053162;28;20254;-75
2022/07/27 13:24:24;;;;;;;2.27;0.97;;;29.90;1.00;;;;;;5053373;28;20206;-75
2022/07/27 13:26:50;;;;;;;5.13;1.47;;;30.10;1.00;;;;;;5037851;28;20952;-75
2022/07/27 13:29:16;;;;;;;2.37;0.90;;;30.30;1.00;;;;;;5033355;28;20205;-76
2022/07/27 13:31:43;;;;;;;1.83;0.80;;;29.80;1.00;;;;;;5043317;28;20173;-76
2022/07/27 13:34:09;;;;;;;3.57;1.30;;;29.50;1.00;;;;;;5053003;28;20466;-76
2022/07/27 13:36:35;;;;;;;2.30;1.00;;;29.30;1.00;;;;;;5053557;28;20423;-75
2022/07/27 13:39:01;;;;;;;7.57;0.80;;;29.30;1.00;;;;;;5053152;28;20618;-75
2022/07/27 13:41:26;;;;;;;4.30;1.00;;;29.30;1.00;;;;;;5051962;28;20262;-75
2022/07/27 13:43:52;;;;;;;2.80;1.23;;;29.40;1.00;;;;;;5037672;28;20183;-77
2022/07/27 13:46:35;;;;;;;4.83;1.17;;;29.30;1.00;;;;;;5043865;28;20192;-78
2022/07/27 13:49:17;;;;;;;3.60;0.80;;;29.10;1.00;;;;;;5053798;28;20203;-77
2022/07/27 13:51:47;;;;;;;2.53;1.03;;;28.70;1.00;;;;;;5053556;28;20457;-77
2022/07/27 13:54:13;;;;;;;4.83;0.90;;;28.60;1.00;;;;;;5054078;28;20397;-76